createdAt,value
2024-05-09T00:01:36.538Z,3.19
2024-05-09T00:04:11.614Z,3.17
2024-05-09T00:06:42.260Z,3.26
2024-05-09T00:09:15.963Z,3.20
2024-05-09T00:11:54.350Z,3.33
2024-05-09T00:14:27.738Z,3.17
2024-05-09T00:16:59.973Z,3.14
2024-05-09T00:19:34.266Z,3.23
2024-05-09T00:22:10.929Z,3.32
2024-05-09T00:24:44.327Z,3.27
2024-05-09T00:27:23.154Z,3.30
2024-05-09T00:29:53.681Z,3.33
2024-05-09T00:32:26.347Z,3.32
2024-05-09T00:34:57.126Z,3.39
2024-05-09T00:37:28.135Z,3.31
2024-05-09T00:40:18.720Z,3.35
2024-05-09T00:43:05.037Z,3.33
2024-05-09T00:45:39.203Z,3.35
2024-05-09T00:48:13.404Z,3.29
2024-05-09T00:50:50.750Z,3.35
2024-05-09T00:53:25.209Z,3.41
2024-05-09T00:56:01.601Z,3.45
2024-05-09T00:58:43.952Z,3.38
2024-05-09T01:01:14.744Z,3.43
2024-05-09T01:03:51.957Z,3.43
2024-05-09T01:06:24.190Z,3.34
2024-05-09T01:09:04.696Z,3.39
2024-05-09T01:11:45.627Z,3.43
2024-05-09T01:14:19.344Z,3.45
2024-05-09T01:16:50.431Z,3.35
2024-05-09T01:19:29.724Z,3.49
2024-05-09T01:22:10.630Z,3.42
2024-05-09T01:24:53.241Z,3.29
2024-05-09T01:27:26.780Z,3.36
2024-05-09T01:29:57.586Z,3.34
2024-05-09T01:32:30.201Z,3.32
2024-05-09T01:35:01.138Z,3.42
2024-05-09T01:37:34.698Z,3.38
2024-05-09T01:40:14.797Z,3.34
2024-05-09T01:42:54.387Z,3.39
2024-05-09T01:45:48.069Z,3.29
2024-05-09T01:48:21.884Z,3.37
2024-05-09T01:50:56.540Z,3.29
2024-05-09T01:53:27.281Z,3.39
2024-05-09T01:56:03.629Z,3.39
2024-05-09T01:58:35.973Z,3.27
2024-05-09T02:01:06.634Z,3.38
2024-05-09T02:03:37.479Z,3.42
2024-05-09T02:06:13.244Z,3.27
2024-05-09T02:08:47.356Z,3.33
2024-05-09T02:11:29.148Z,3.39
2024-05-09T02:13:59.898Z,3.47
2024-05-09T02:16:30.662Z,3.38
2024-05-09T02:19:05.261Z,3.35
2024-05-09T02:21:39.199Z,3.34
2024-05-09T02:24:10.172Z,3.35
2024-05-09T02:26:46.510Z,3.32
2024-05-09T02:29:17.272Z,3.44
2024-05-09T02:31:52.573Z,3.47
2024-05-09T02:34:26.548Z,3.40
2024-05-09T02:37:03.062Z,3.42
2024-05-09T02:39:31.027Z,3.44
2024-05-09T02:42:09.749Z,3.44
2024-05-09T02:44:39.970Z,3.34
2024-05-09T02:47:12.432Z,3.42
2024-05-09T02:49:43.646Z,3.46
2024-05-09T02:52:20.475Z,3.44
2024-05-09T02:54:54.674Z,3.22
2024-05-09T02:57:37.197Z,3.34
2024-05-09T03:00:07.692Z,3.43
2024-05-09T03:02:45.792Z,3.46
2024-05-09T03:05:13.961Z,3.51
2024-05-09T03:07:47.907Z,3.49
2024-05-09T03:10:22.252Z,3.52
2024-05-09T03:13:07.546Z,3.51
2024-05-09T03:15:39.575Z,3.58
2024-05-09T03:18:28.451Z,3.59
2024-05-09T03:20:56.810Z,3.63
2024-05-09T03:23:29.871Z,3.65
2024-05-09T03:25:58.264Z,3.58
2024-05-09T03:28:34.029Z,3.56
2024-05-09T03:31:03.035Z,3.51
2024-05-09T03:33:34.110Z,3.67
2024-05-09T03:36:12.482Z,3.65
2024-05-09T03:38:43.254Z,3.59
2024-05-09T03:41:14.078Z,3.61
2024-05-09T03:43:47.767Z,3.66
2024-05-09T03:46:24.041Z,3.69
2024-05-09T03:48:57.356Z,3.67
2024-05-09T03:51:28.454Z,3.72
2024-05-09T03:53:56.431Z,3.77
2024-05-09T03:56:27.113Z,3.84
2024-05-09T03:59:01.080Z,3.78
2024-05-09T04:01:32.349Z,3.82
2024-05-09T04:04:03.625Z,3.86
2024-05-09T04:06:38.902Z,4.02
2024-05-09T04:09:15.181Z,3.96
2024-05-09T04:11:50.415Z,3.90
2024-05-09T04:14:26.684Z,3.89
2024-05-09T04:16:57.627Z,3.96
2024-05-09T04:19:28.519Z,4.12
2024-05-09T04:22:00.468Z,4.23
2024-05-09T04:24:32.557Z,4.14
2024-05-09T04:27:10.378Z,4.24
2024-05-09T04:29:43.464Z,4.39
2024-05-09T04:32:17.415Z,4.39
2024-05-09T04:34:48.250Z,4.32
2024-05-09T04:37:19.046Z,4.27
2024-05-09T04:39:53.014Z,4.41
2024-05-09T04:42:26.759Z,4.36
2024-05-09T04:45:03.689Z,4.36
2024-05-09T04:47:37.975Z,4.54
2024-05-09T04:50:14.507Z,4.56
2024-05-09T04:52:48.180Z,4.44
2024-05-09T04:55:18.253Z,4.64
2024-05-09T04:57:54.624Z,4.65
2024-05-09T05:00:35.894Z,4.73
2024-05-09T05:03:14.550Z,4.71
2024-05-09T05:05:45.666Z,4.77
2024-05-09T05:08:19.848Z,4.83
2024-05-09T05:10:49.308Z,4.81
2024-05-09T05:13:21.816Z,4.79
2024-05-09T05:16:03.138Z,4.89
2024-05-09T05:18:35.237Z,5.12
2024-05-09T05:21:08.517Z,4.99
2024-05-09T05:23:44.028Z,5.03
2024-05-09T05:26:21.145Z,5.15
2024-05-09T05:28:56.706Z,5.11
2024-05-09T05:31:30.300Z,5.22
2024-05-09T05:34:02.371Z,5.24
2024-05-09T05:36:33.382Z,5.21
2024-05-09T05:39:08.721Z,5.30
2024-05-09T05:41:40.836Z,5.16
2024-05-09T05:44:14.509Z,5.40
2024-05-09T05:46:48.249Z,5.35
2024-05-09T05:49:20.164Z,5.31
2024-05-09T05:51:52.135Z,5.02
2024-05-09T05:54:22.655Z,5.09
2024-05-09T05:56:57.995Z,5.19
2024-05-09T05:59:33.200Z,5.28
2024-05-09T06:02:05.242Z,5.11
2024-05-09T06:04:41.971Z,5.24
2024-05-09T06:07:11.694Z,5.30
2024-05-09T06:09:42.312Z,5.45
2024-05-09T06:12:13.296Z,5.64
2024-05-09T06:14:46.549Z,5.77
2024-05-09T06:17:21.628Z,5.93
2024-05-09T06:19:52.750Z,5.89
2024-05-09T06:22:24.276Z,5.92
2024-05-09T06:24:55.117Z,5.94
2024-05-09T06:27:26.789Z,5.99
2024-05-09T06:30:03.028Z,5.97
2024-05-09T06:32:34.789Z,6.17
2024-05-09T06:35:11.198Z,6.21
2024-05-09T06:37:56.515Z,6.23
2024-05-09T06:40:36.147Z,6.50
2024-05-09T06:43:12.574Z,6.16
2024-05-09T06:45:43.190Z,6.43
2024-05-09T06:48:15.763Z,6.58
2024-05-09T06:50:51.090Z,6.45
2024-05-09T06:53:22.135Z,6.28
2024-05-09T06:55:57.061Z,6.30
2024-05-09T06:58:25.140Z,6.26
2024-05-09T07:00:57.869Z,6.30
2024-05-09T07:03:29.050Z,6.40
2024-05-09T07:05:59.730Z,6.36
2024-05-09T07:08:28.131Z,6.32
2024-05-09T07:11:01.176Z,6.44
2024-05-09T07:13:31.905Z,6.56
2024-05-09T07:16:08.271Z,6.62
2024-05-09T07:18:39.428Z,6.86
2024-05-09T07:21:13.511Z,6.79
2024-05-09T07:23:43.604Z,7.10
2024-05-09T07:26:15.432Z,7.18
2024-05-09T07:28:46.364Z,7.12
2024-05-09T07:31:17.491Z,7.30
2024-05-09T07:33:49.157Z,7.49
2024-05-09T07:36:22.553Z,7.46
2024-05-09T07:38:50.583Z,7.01
2024-05-09T07:41:31.862Z,7.03
2024-05-09T07:43:59.886Z,6.95
2024-05-09T07:47:36.994Z,6.85
2024-05-09T07:53:26.905Z,6.75
2024-05-09T07:54:50.968Z,6.67
2024-05-09T07:57:28.140Z,6.63
2024-05-09T08:00:01.437Z,6.69
2024-05-09T08:02:35.506Z,6.79
2024-05-09T08:05:09.384Z,6.88
2024-05-09T08:07:45.487Z,7.01
2024-05-09T08:10:27.422Z,7.02
2024-05-09T08:13:04.503Z,7.14
2024-05-09T08:15:35.449Z,7.42
2024-05-09T08:18:08.005Z,7.76
2024-05-09T08:20:40.496Z,8.23
2024-05-09T08:23:19.787Z,8.10
2024-05-09T08:25:49.323Z,8.11
2024-05-09T08:28:21.597Z,8.36
2024-05-09T08:30:55.475Z,8.46
2024-05-09T08:33:26.532Z,8.43
2024-05-09T08:35:57.878Z,8.59
2024-05-09T08:38:30.641Z,8.48
2024-05-09T08:41:04.756Z,8.71
2024-05-09T08:43:36.745Z,9.11
2024-05-09T08:46:07.852Z,9.00
2024-05-09T08:48:43.778Z,9.23
2024-05-09T08:51:19.374Z,9.20
2024-05-09T08:53:53.077Z,9.35
2024-05-09T08:56:22.272Z,9.28
2024-05-09T08:58:57.819Z,9.29
2024-05-09T09:01:34.412Z,9.40
2024-05-09T09:04:11.836Z,9.43
2024-05-09T09:06:45.109Z,9.25
2024-05-09T09:09:18.675Z,9.55
2024-05-09T09:11:49.741Z,9.65
2024-05-09T09:14:20.446Z,9.83
2024-05-09T09:16:50.363Z,9.70
2024-05-09T09:19:21.623Z,9.40
2024-05-09T09:21:55.174Z,9.03
2024-05-09T09:27:22.927Z,9.56
2024-05-09T09:29:53.527Z,9.40
2024-05-09T09:32:28.024Z,9.63
2024-05-09T09:34:58.668Z,9.68
2024-05-09T09:37:35.875Z,9.63
2024-05-09T09:40:07.456Z,9.65
2024-05-09T09:42:39.013Z,9.45
2024-05-09T09:45:13.700Z,9.66
2024-05-09T09:47:45.423Z,9.63
2024-05-09T09:50:27.653Z,9.78
2024-05-09T09:53:08.734Z,9.70
2024-05-09T09:55:40.709Z,9.83
2024-05-09T09:58:14.401Z,9.83
2024-05-09T10:00:48.750Z,9.75
2024-05-09T10:03:28.267Z,9.51
2024-05-09T10:06:04.424Z,9.47
2024-05-09T10:08:44.484Z,9.52
2024-05-09T10:11:23.555Z,9.53
2024-05-09T10:13:54.163Z,9.67
2024-05-09T10:16:25.370Z,9.77
2024-05-09T10:19:02.119Z,9.90
2024-05-09T10:21:49.338Z,10.07
2024-05-09T10:24:20.013Z,10.24
2024-05-09T10:26:58.019Z,10.02
2024-05-09T10:29:26.701Z,10.12
2024-05-09T10:32:03.705Z,10.23
2024-05-09T10:34:35.309Z,10.26
2024-05-09T10:37:06.704Z,10.19
2024-05-09T10:39:43.335Z,10.22
2024-05-09T10:42:17.091Z,10.38
2024-05-09T10:44:45.031Z,10.29
2024-05-09T10:47:18.950Z,10.40
2024-05-09T10:49:47.607Z,10.27
2024-05-09T10:52:25.659Z,10.37
2024-05-09T10:54:56.471Z,10.57
2024-05-09T10:57:28.101Z,10.80
2024-05-09T11:00:00.462Z,11.08
2024-05-09T11:02:36.404Z,10.97
2024-05-09T11:05:08.683Z,10.86
2024-05-09T11:07:41.822Z,10.85
2024-05-09T11:10:20.993Z,10.54
2024-05-09T11:13:00.566Z,10.39
2024-05-09T11:15:38.986Z,10.56
2024-05-09T11:18:11.479Z,10.56
2024-05-09T11:20:39.969Z,10.39
2024-05-09T11:23:24.834Z,10.25
2024-05-09T11:25:56.480Z,10.22
2024-05-09T11:28:28.970Z,10.30
2024-05-09T11:31:07.320Z,10.16
2024-05-09T11:33:40.628Z,10.34
2024-05-09T11:36:11.922Z,10.42
2024-05-09T11:38:44.805Z,10.57
2024-05-09T11:41:20.442Z,10.61
2024-05-09T11:43:58.350Z,10.74
2024-05-09T11:46:30.747Z,10.76
2024-05-09T11:49:06.606Z,10.58
2024-05-09T11:51:34.781Z,10.51
2024-05-09T11:54:07.415Z,10.43
2024-05-09T11:56:38.363Z,9.93
2024-05-09T11:59:14.012Z,10.08
2024-05-09T12:01:43.820Z,10.15
2024-05-09T12:04:16.200Z,10.06
2024-05-09T12:06:47.608Z,9.66
2024-05-09T12:09:21.046Z,9.71
2024-05-09T12:11:59.076Z,9.88
2024-05-09T12:14:34.812Z,9.78
2024-05-09T12:17:04.367Z,9.93
2024-05-09T12:19:57.669Z,9.76
2024-05-09T12:22:26.024Z,9.94
2024-05-09T12:24:59.076Z,9.86
2024-05-09T12:27:32.561Z,10.06
2024-05-09T12:30:03.457Z,10.13
2024-05-09T12:32:32.820Z,10.14
2024-05-09T12:35:12.823Z,10.14
2024-05-09T12:37:43.688Z,10.15
2024-05-09T12:40:26.745Z,10.06
2024-05-09T12:43:06.974Z,10.22
2024-05-09T12:45:48.462Z,10.26
2024-05-09T12:48:19.451Z,10.53
2024-05-09T12:50:55.346Z,10.34
2024-05-09T12:53:26.279Z,10.40
2024-05-09T12:56:03.005Z,10.40
2024-05-09T12:58:38.253Z,10.43
2024-05-09T13:01:09.094Z,10.56
2024-05-09T13:03:39.329Z,10.59
2024-05-09T13:06:14.073Z,10.53
2024-05-09T13:08:45.019Z,10.66
2024-05-09T13:11:20.283Z,10.59
2024-05-09T13:14:02.447Z,10.40
2024-05-09T13:16:33.751Z,10.52
2024-05-09T13:19:02.222Z,10.49
2024-05-09T13:21:36.289Z,10.46
2024-05-09T13:24:09.793Z,10.55
2024-05-09T13:26:40.316Z,10.45
2024-05-09T13:29:13.624Z,10.39
2024-05-09T13:31:45.470Z,10.26
2024-05-09T13:34:13.655Z,10.26
2024-05-09T13:36:44.405Z,10.45
2024-05-09T13:39:22.014Z,10.47
2024-05-09T13:41:54.155Z,10.53
2024-05-09T13:44:25.393Z,10.60
2024-05-09T13:47:00.373Z,10.70
2024-05-09T13:49:34.919Z,10.78
2024-05-09T13:52:05.842Z,10.62
2024-05-09T13:54:36.945Z,10.65
2024-05-09T13:57:10.631Z,10.35
2024-05-09T13:59:48.961Z,10.53
2024-05-09T14:02:21.209Z,10.79
2024-05-09T14:04:49.626Z,11.01
2024-05-09T14:07:23.278Z,10.98
2024-05-09T14:09:52.417Z,11.19
2024-05-09T14:12:24.651Z,11.53
2024-05-09T14:15:00.651Z,11.63
2024-05-09T14:17:33.558Z,11.97
2024-05-09T14:20:09.486Z,11.95
2024-05-09T14:25:26.930Z,11.80
2024-05-09T14:28:00.964Z,11.82
2024-05-09T14:30:37.461Z,11.94
2024-05-09T14:33:22.446Z,11.89
2024-05-09T14:35:56.210Z,11.75
2024-05-09T14:38:24.775Z,11.62
2024-05-09T14:41:02.212Z,11.65
2024-05-09T14:43:35.378Z,11.41
2024-05-09T14:46:09.468Z,11.29
2024-05-09T14:48:42.062Z,11.13
2024-05-09T14:51:20.114Z,10.83
2024-05-09T14:53:50.952Z,10.93
2024-05-09T14:56:25.470Z,10.82
2024-05-09T14:59:00.809Z,10.81
2024-05-09T15:01:39.622Z,10.77
2024-05-09T15:04:10.170Z,10.73
2024-05-09T15:06:47.593Z,10.69
2024-05-09T15:09:15.649Z,10.64
2024-05-09T15:14:37.184Z,10.75
2024-05-09T15:17:21.844Z,10.74
2024-05-09T15:19:52.753Z,10.74
2024-05-09T15:22:34.951Z,10.53
2024-05-09T15:25:02.886Z,10.63
2024-05-09T15:27:35.349Z,10.67
2024-05-09T15:30:10.861Z,10.72
2024-05-09T15:32:49.784Z,10.68
2024-05-09T15:35:42.445Z,10.58
2024-05-09T15:38:28.225Z,10.61
2024-05-09T15:40:59.723Z,10.56
2024-05-09T15:43:32.856Z,10.47
2024-05-09T15:46:09.250Z,10.51
2024-05-09T15:48:44.856Z,10.60
2024-05-09T15:51:15.825Z,10.51
2024-05-09T15:53:50.181Z,10.66
2024-05-09T15:56:23.642Z,10.73
2024-05-09T15:59:00.014Z,10.83
2024-05-09T16:01:30.695Z,10.78
2024-05-09T16:04:02.946Z,10.96
2024-05-09T16:06:39.525Z,10.86
2024-05-09T16:09:11.188Z,10.83
2024-05-09T16:11:41.882Z,10.76
2024-05-09T16:14:09.944Z,10.63
2024-05-09T16:16:44.373Z,10.56
2024-05-09T16:19:19.397Z,10.53
2024-05-09T16:22:01.430Z,10.43
2024-05-09T16:24:32.468Z,10.36
2024-05-09T16:27:03.273Z,10.27
2024-05-09T16:29:31.231Z,10.24
2024-05-09T16:32:06.218Z,10.20
2024-05-09T16:34:37.384Z,10.28
2024-05-09T16:37:10.823Z,10.21
2024-05-09T16:39:44.042Z,10.17
2024-05-09T16:42:20.374Z,10.13
2024-05-09T16:44:49.983Z,10.17
2024-05-09T16:47:23.558Z,10.10
2024-05-09T16:50:15.834Z,10.13
2024-05-09T16:52:52.908Z,10.09
2024-05-09T16:55:23.242Z,10.21
2024-05-09T16:57:57.524Z,10.18
2024-05-09T17:00:37.907Z,10.19
2024-05-09T17:03:16.902Z,10.19
2024-05-09T17:05:51.146Z,10.17
2024-05-09T17:08:27.420Z,10.14
2024-05-09T17:10:56.878Z,10.04
2024-05-09T17:13:29.805Z,10.07
2024-05-09T17:16:02.328Z,10.04
2024-05-09T17:18:36.466Z,10.02
2024-05-09T17:21:13.065Z,10.03
2024-05-09T17:23:45.236Z,10.04
2024-05-09T17:26:21.496Z,10.04
2024-05-09T17:28:57.962Z,10.08
2024-05-09T17:31:28.711Z,10.05
2024-05-09T17:33:58.995Z,10.13
2024-05-09T17:36:34.344Z,10.07
2024-05-09T17:39:05.510Z,10.06
2024-05-09T17:41:39.024Z,10.04
2024-05-09T17:44:13.122Z,9.98
2024-05-09T17:46:43.962Z,9.99
2024-05-09T17:49:15.233Z,9.89
2024-05-09T17:51:58.635Z,9.82
2024-05-09T17:54:30.387Z,9.80
2024-05-09T17:57:09.322Z,9.77
2024-05-09T17:59:39.239Z,9.76
2024-05-09T18:02:12.749Z,9.75
2024-05-09T18:04:49.361Z,9.67
2024-05-09T18:07:22.984Z,9.60
2024-05-09T18:09:54.069Z,9.54
2024-05-09T18:12:25.180Z,9.48
2024-05-09T18:14:54.907Z,9.48
2024-05-09T18:17:36.364Z,9.44
2024-05-09T18:20:05.759Z,9.36
2024-05-09T18:22:39.501Z,9.39
2024-05-09T18:25:15.914Z,9.32
2024-05-09T18:27:53.101Z,9.36
2024-05-09T18:30:32.521Z,9.38
2024-05-09T18:33:16.943Z,9.24
2024-05-09T18:35:50.653Z,9.26
2024-05-09T18:38:27.441Z,9.30
2024-05-09T18:40:59.236Z,9.19
2024-05-09T18:43:38.037Z,9.13
2024-05-09T18:46:10.190Z,9.09
2024-05-09T18:48:41.418Z,9.11
2024-05-09T18:51:15.941Z,9.08
2024-05-09T18:53:55.582Z,9.04
2024-05-09T18:56:30.006Z,9.01
2024-05-09T18:59:00.744Z,9.03
2024-05-09T19:01:33.298Z,8.97
2024-05-09T19:04:04.631Z,8.92
2024-05-09T19:06:37.104Z,8.93
2024-05-09T19:09:12.904Z,8.93
2024-05-09T19:11:49.293Z,8.95
2024-05-09T19:14:20.283Z,8.92
2024-05-09T19:16:48.275Z,8.92
2024-05-09T19:19:20.567Z,8.93
2024-05-09T19:21:48.967Z,9.03
2024-05-09T19:24:27.432Z,9.01
2024-05-09T19:26:56.846Z,9.01
2024-05-09T19:29:29.111Z,9.05
2024-05-09T19:32:04.767Z,9.03
2024-05-09T19:34:39.176Z,9.08
2024-05-09T19:37:07.285Z,9.06
2024-05-09T19:39:46.269Z,9.14
2024-05-09T19:42:14.557Z,9.16
2024-05-09T19:44:46.436Z,9.12
2024-05-09T19:47:20.469Z,9.16
2024-05-09T19:49:57.077Z,9.17
2024-05-09T19:52:25.070Z,9.13
2024-05-09T19:55:01.088Z,9.19
2024-05-09T19:57:28.992Z,9.19
2024-05-09T19:59:59.731Z,9.27
2024-05-09T20:02:27.848Z,9.33
2024-05-09T20:04:58.619Z,9.25
2024-05-09T20:07:26.503Z,9.24
2024-05-09T20:10:00.104Z,9.29
2024-05-09T20:12:28.192Z,9.28
2024-05-09T20:15:02.895Z,9.27
2024-05-09T20:17:34.512Z,9.32
2024-05-09T20:20:09.169Z,9.33
2024-05-09T20:22:41.865Z,9.34
2024-05-09T20:25:15.548Z,9.26
2024-05-09T20:27:45.991Z,9.27
2024-05-09T20:30:30.562Z,9.29
2024-05-09T20:33:09.229Z,9.28
2024-05-09T20:35:42.370Z,9.32
2024-05-09T20:38:10.338Z,9.31
2024-05-09T20:40:46.859Z,9.35
2024-05-09T20:43:16.244Z,9.28
2024-05-09T20:45:47.094Z,9.34
2024-05-09T20:48:17.094Z,9.34
2024-05-09T20:50:48.096Z,9.36
2024-05-09T20:53:22.417Z,9.42
2024-05-09T20:55:57.157Z,9.38
2024-05-09T20:58:26.311Z,9.35
2024-05-09T21:00:57.419Z,9.32
2024-05-09T21:03:26.024Z,9.35
2024-05-09T21:05:57.100Z,9.31
2024-05-09T21:08:27.022Z,9.33
2024-05-09T21:11:05.341Z,9.27
2024-05-09T21:13:34.305Z,9.23
2024-05-09T21:16:14.295Z,9.16
2024-05-09T21:18:49.340Z,9.18
2024-05-09T21:21:20.050Z,9.17
2024-05-09T21:23:48.225Z,9.16
2024-05-09T21:26:25.342Z,9.18
2024-05-09T21:28:53.483Z,9.16
2024-05-09T21:31:26.072Z,9.18
2024-05-09T21:33:56.029Z,9.16
2024-05-09T21:36:26.808Z,9.16
2024-05-09T21:38:54.691Z,9.15
2024-05-09T21:41:30.854Z,9.16
2024-05-09T21:44:01.367Z,9.14
2024-05-09T21:46:35.317Z,9.16
2024-05-09T21:49:04.052Z,9.20
2024-05-09T21:51:37.990Z,9.16
2024-05-09T21:54:08.809Z,9.14
2024-05-09T21:56:42.522Z,9.11
2024-05-09T21:59:12.433Z,9.12
2024-05-09T22:01:43.132Z,9.15
2024-05-09T22:04:11.319Z,9.16
2024-05-09T22:06:42.090Z,9.14
2024-05-09T22:09:12.310Z,9.12
2024-05-09T22:11:47.515Z,9.13
2024-05-09T22:14:21.610Z,9.13
2024-05-09T22:17:15.757Z,9.10
2024-05-09T22:19:48.919Z,9.14
2024-05-09T22:22:22.483Z,9.21
2024-05-09T22:24:51.944Z,9.14
2024-05-09T22:27:25.317Z,9.16
2024-05-09T22:29:56.371Z,9.15
2024-05-09T22:32:27.092Z,9.16
2024-05-09T22:34:56.808Z,9.13
2024-05-09T22:37:27.746Z,9.08
2024-05-09T22:40:05.478Z,8.99
2024-05-09T22:42:40.087Z,9.02
2024-05-09T22:45:18.181Z,8.96
2024-05-09T22:47:49.136Z,8.94
2024-05-09T22:50:26.726Z,8.92
2024-05-09T22:53:02.972Z,8.82
2024-05-09T22:55:36.779Z,8.79
2024-05-09T22:58:12.846Z,8.79
2024-05-09T23:00:43.823Z,8.74
2024-05-09T23:03:19.234Z,8.66
2024-05-09T23:05:50.470Z,8.62
2024-05-09T23:08:23.761Z,8.55
2024-05-09T23:10:51.970Z,8.50
2024-05-09T23:13:28.408Z,8.46
2024-05-09T23:15:58.779Z,8.46
2024-05-09T23:18:31.990Z,8.41
2024-05-09T23:21:09.634Z,8.37
2024-05-09T23:23:43.013Z,8.34
2024-05-09T23:26:13.237Z,8.35
2024-05-09T23:28:48.166Z,8.31
2024-05-09T23:31:18.519Z,8.30
2024-05-09T23:33:49.930Z,8.25
2024-05-09T23:36:21.397Z,8.26
2024-05-09T23:38:55.106Z,8.25
2024-05-09T23:41:24.808Z,8.22
2024-05-09T23:43:58.308Z,8.23
2024-05-09T23:46:33.373Z,8.18
2024-05-09T23:49:01.720Z,8.18
2024-05-09T23:51:32.453Z,8.19
2024-05-09T23:54:00.435Z,8.11
2024-05-09T23:56:36.487Z,8.10
2024-05-09T23:59:11.926Z,8.06
